• Join FlightAware (Why Join?)
  • Login
  • US Flag 
04:53AM EST


 

Airport Tracker/Info


-or-


 

Live Flight TrackerFlight Track Log ✈ RPA3446 ✈ 26-Jun-2014 ✈ KPHL - KBGR

Flight Track Log - Related Links

Times and Time Zones

All times are in EDT time to prevent confusion due to time zone crossing. See the RPA3446 flight status page for this flight to view local times or setup timezone preferences in your user account.

Time Position Orientation Groundspeed Altitude Reporting Facility
EDT Latitude Longitude Course Direction KTS MPH feet Rate Location/Type
09:18PM 39.8500 -75.2833 237° Southwest 157 181 900  Level Philadelphia TRACON
09:19PM 39.8333 -75.3167 237° Southwest 180 207 2,000 1,560 Climbing Philadelphia TRACON
09:20PM 39.7833 -75.3500 207° Southwest 247 284 3,600 1,980 Climbing Philadelphia TRACON
09:21PM 39.7333 -75.3000 142° Southeast 280 322 6,100 2,400 Climbing Philadelphia TRACON
09:22PM 39.7333 -75.2000 90° East 285 328 8,400 1,800 Climbing Philadelphia TRACON
09:24PM 39.7664 -74.9517 80° East 353 406 11,900 1,140 Climbing New York Center
09:25PM 39.7808 -74.8364 81° East 361 415 12,200 1,260 Climbing New York Center
09:26PM 39.8550 -74.7406 45° Northeast 345 397 14,500 2,100 Climbing New York Center
09:27PM 39.9372 -74.6506 40° Northeast 357 411 16,400 1,920 Climbing New York Center
09:28PM 40.0217 -74.5575 40° Northeast 368 423 18,400 1,860 Climbing New York Center
09:29PM 40.1078 -74.4644 40° Northeast 395 455 20,200 1,740 Climbing New York Center
09:30PM 40.2006 -74.3689 38° Northeast 413 475 21,900 1,560 Climbing New York Center
09:31PM 40.2908 -74.2703 40° Northeast 413 475 23,400 1,260 Climbing New York Center
09:34PM 40.5019 -74.0433 39° Northeast 450 518 26,100 1,200 Climbing Boston Center
09:35PM 40.5989 -73.9131 46° Northeast 463 533 27,400 1,140 Climbing Boston Center
09:36PM 40.6875 -73.7811 48° Northeast 476 548 28,400 840 Climbing Boston Center
09:37PM 40.7786 -73.6475 48° Northeast 487 560 29,200 720 Climbing Boston Center
09:38PM 40.8758 -73.5172 45° Northeast 495 570 30,000 720 Climbing Boston Center
09:39PM 40.9853 -73.3997 39° Northeast 500 575 30,700 780 Climbing Boston Center
09:40PM 41.0972 -73.2783 39° Northeast 504 580 31,600 780 Climbing Boston Center
09:41PM 41.2061 -73.1594 39° Northeast 505 581 32,300 660 Climbing Boston Center
09:42PM 41.3150 -73.0400 39° Northeast 507 583 33,000 300 Climbing Boston Center
09:43PM 41.4258 -72.9197 39° Northeast 507 583 33,000  Level Boston Center
09:44PM 41.5342 -72.7994 40° Northeast 507 583 33,000  Level Boston Center
09:45PM 41.6617 -72.6586 40° Northeast 507 583 33,000  Level Boston Center
09:46PM 41.7719 -72.5353 40° Northeast 514 592 33,000  Level Boston Center
09:47PM 41.8828 -72.4139 39° Northeast 519 597 33,000  Level Boston Center
09:48PM 41.9931 -72.2883 40° Northeast 520 598 33,000  Level Boston Center
09:49PM 42.1036 -72.1647 40° Northeast 521 600 33,000  Level Boston Center
09:50PM 42.2147 -72.0397 40° Northeast 521 600 33,000  Level Boston Center
09:51PM 42.3239 -71.9133 41° Northeast 521 600 33,000  Level Boston Center
09:52PM 42.4344 -71.7875 40° Northeast 521 600 33,000  Level Boston Center
09:53PM 42.5678 -71.6342 40° Northeast 525 604 33,000  Level Boston Center
09:54PM 42.6736 -71.5117 40° Northeast 528 608 33,000  Level Boston Center
09:55PM 42.7864 -71.3828 40° Northeast 529 609 33,000  Level Boston Center
09:56PM 42.8986 -71.2503 41° Northeast 530 610 33,000  Level Boston Center
09:57PM 43.0108 -71.1183 41° Northeast 530 610 33,000  Level Boston Center
09:58PM 43.1233 -70.9878 40° Northeast 530 610 33,000  Level Boston Center
09:59PM 43.2342 -70.8547 41° Northeast 531 611 33,000  Level Boston Center
10:00PM 43.3467 -70.7206 41° Northeast 532 612 33,000  Level Boston Center
10:01PM 43.4736 -70.5681 41° Northeast 532 612 33,000 -120 Level Boston Center
10:02PM 43.5867 -70.4333 41° Northeast 533 613 32,800 -1,320 Descending Boston Center
10:03PM 43.6958 -70.3014 41° Northeast 525 604 30,300 -2,400 Descending Boston Center
10:04PM 43.8028 -70.1725 41° Northeast 512 589 27,900 -2,100 Descending Boston Center
10:05PM 43.9031 -70.0492 42° Northeast 486 559 26,100 -1,800 Descending Boston Center
10:06PM 44.0011 -69.9286 41° Northeast 474 545 24,300 -1,800 Descending Boston Center
10:07PM 44.0953 -69.8128 41° Northeast 458 527 22,600 -1,680 Descending Boston Center
10:08PM 44.1869 -69.7000 41° Northeast 443 510 21,000 -1,620 Descending Boston Center
10:09PM 44.2739 -69.5917 42° Northeast 423 487 19,400 -1,740 Descending Boston Center
10:10PM 44.3564 -69.4886 42° Northeast 402 463 17,400 -2,220 Descending Boston Center
10:11PM 44.4311 -69.3522 52° Northeast 377 434 14,900 -2,280 Descending Boston Center
10:12PM 44.4731 -69.2356 63° Northeast 340 391 12,800 -2,220 Descending Boston Center
10:13PM 44.5086 -69.1269 65° Northeast 315 362 10,500 -2,400 Descending Boston Center
10:14PM 44.5417 -69.0256 65° Northeast 295 339 8,000 -2,400 Descending Boston Center
10:15PM 44.5772 -68.9356 61° Northeast 276 318 5,700 -2,100 Descending Boston Center
10:16PM 44.6242 -68.8719 44° Northeast 238 274 3,800 -1,560 Descending Boston Center
10:17PM 44.6650 -68.8131 46° Northeast 221 254 2,600 -660 Descending Boston Center
10:18PM 44.6950 -68.7711 45° Northeast 166 191 2,500 -360 Descending Boston Center
10:19PM 44.7297 -68.7536 20° North 142 163 1,900 -720 Descending Boston Center
10:20PM 44.7633 -68.7664 345° North 131 151 1,100 -720 Descending Boston Center
10:21PM 44.7894 -68.8017 316° Northwest 131 151 500 -420 Descending Boston Center
10:22PM 44.8147 -68.8367 316° Northwest 131 151 300 -240 Descending Boston Center